createdAt,value
2022-12-24T00:02:34.979Z,5.20
2022-12-24T00:05:22.092Z,4.63
2022-12-24T00:08:08.567Z,3.73
2022-12-24T00:10:55.437Z,3.57
2022-12-24T00:13:43.237Z,3.10
2022-12-24T00:16:29.647Z,2.93
2022-12-24T00:19:15.981Z,3.60
2022-12-24T00:22:02.377Z,4.20
2022-12-24T00:24:48.662Z,3.03
2022-12-24T00:27:34.895Z,2.70
2022-12-24T00:30:22.553Z,2.53
2022-12-24T00:33:09.031Z,2.53
2022-12-24T00:35:55.361Z,2.27
2022-12-24T00:38:41.917Z,2.33
2022-12-24T00:41:29.335Z,2.30
2022-12-24T00:44:16.070Z,2.23
2022-12-24T00:47:08.403Z,2.07
2022-12-24T00:49:58.293Z,2.30
2022-12-24T00:52:44.770Z,2.30
2022-12-24T00:55:30.990Z,2.80
2022-12-24T00:58:17.205Z,2.50
2022-12-24T01:01:04.059Z,3.33
2022-12-24T01:03:52.094Z,3.13
2022-12-24T01:06:37.616Z,3.10
2022-12-24T01:09:24.259Z,2.97
2022-12-24T01:12:10.693Z,2.80
2022-12-24T01:14:57.144Z,2.90
2022-12-24T01:17:44.012Z,2.60
2022-12-24T01:20:33.036Z,2.30
2022-12-24T01:23:19.575Z,3.03
2022-12-24T01:26:06.440Z,2.40
2022-12-24T01:28:52.995Z,2.30
2022-12-24T01:31:39.978Z,2.50
2022-12-24T01:34:26.333Z,2.40
2022-12-24T01:37:14.131Z,2.37
2022-12-24T01:40:14.600Z,2.47
2022-12-24T01:43:18.946Z,2.47
2022-12-24T01:46:08.112Z,2.47
2022-12-24T01:48:57.288Z,2.60
2022-12-24T01:51:47.278Z,2.50
2022-12-24T01:54:40.439Z,2.80
2022-12-24T01:57:31.523Z,2.50
2022-12-24T02:00:18.719Z,2.70
2022-12-24T02:03:05.672Z,2.87
2022-12-24T02:05:55.833Z,2.73
2022-12-24T02:08:42.529Z,2.70
2022-12-24T02:11:31.894Z,3.10
2022-12-24T02:14:18.687Z,2.60
2022-12-24T02:17:18.818Z,3.30
2022-12-24T02:20:26.108Z,2.77
2022-12-24T02:23:29.162Z,3.43
2022-12-24T02:26:32.449Z,3.30
2022-12-24T02:29:37.995Z,3.27
2022-12-24T02:32:34.489Z,3.23
2022-12-24T02:35:26.316Z,3.60
2022-12-24T02:38:17.235Z,3.50
2022-12-24T02:41:08.202Z,3.77
2022-12-24T02:43:57.376Z,3.87
2022-12-24T02:46:43.947Z,3.20
2022-12-24T02:49:31.580Z,3.93
2022-12-24T02:52:33.678Z,3.27
2022-12-24T02:55:23.032Z,3.33
2022-12-24T02:58:24.717Z,4.00
2022-12-24T03:01:18.358Z,2.93
2022-12-24T03:04:11.239Z,3.60
2022-12-24T03:07:04.947Z,3.53
2022-12-24T03:10:04.865Z,2.57
2022-12-24T03:12:54.082Z,3.03
2022-12-24T03:15:42.105Z,3.30
2022-12-24T03:18:31.169Z,2.80
2022-12-24T03:21:21.911Z,3.00
2022-12-24T03:24:11.219Z,2.33
2022-12-24T03:26:58.150Z,3.10
2022-12-24T03:29:46.913Z,2.60
2022-12-24T03:32:33.827Z,3.00
2022-12-24T03:35:20.476Z,2.60
2022-12-24T03:38:06.814Z,2.47
2022-12-24T03:40:54.832Z,2.50
2022-12-24T03:43:41.208Z,2.70
2022-12-24T03:46:27.925Z,3.10
2022-12-24T03:49:14.338Z,2.83
2022-12-24T03:52:00.646Z,2.70
2022-12-24T03:54:46.997Z,3.00
2022-12-24T03:57:34.692Z,2.40
2022-12-24T04:00:21.996Z,2.73
2022-12-24T04:03:08.428Z,2.70
2022-12-24T04:06:02.543Z,2.67
2022-12-24T04:08:48.986Z,2.67
2022-12-24T04:11:35.256Z,2.63
2022-12-24T04:14:23.185Z,2.40
2022-12-24T04:17:09.816Z,2.73
2022-12-24T04:19:56.458Z,2.73
2022-12-24T04:22:43.050Z,2.67
2022-12-24T04:25:29.308Z,3.07
2022-12-24T04:28:16.261Z,2.87
2022-12-24T04:31:06.476Z,2.27
2022-12-24T04:33:53.606Z,2.23
2022-12-24T04:36:40.267Z,2.13
2022-12-24T04:39:26.552Z,2.80
2022-12-24T04:42:12.986Z,2.40
2022-12-24T04:44:59.378Z,2.83
2022-12-24T04:47:47.143Z,2.53
2022-12-24T04:50:33.690Z,2.43
2022-12-24T04:53:20.146Z,1.90
2022-12-24T04:56:09.979Z,2.50
2022-12-24T04:58:56.690Z,2.50
2022-12-24T05:01:43.448Z,2.63
2022-12-24T05:04:31.959Z,2.70
2022-12-24T05:07:18.401Z,2.30
2022-12-24T05:10:05.408Z,2.40
2022-12-24T05:12:52.058Z,2.30
2022-12-24T05:15:38.464Z,2.20
2022-12-24T05:18:25.086Z,2.50
2022-12-24T05:21:16.279Z,2.33
2022-12-24T05:24:20.319Z,2.60
2022-12-24T05:27:06.861Z,2.50
2022-12-24T05:29:53.199Z,2.40
2022-12-24T05:32:39.480Z,2.77
2022-12-24T05:35:25.838Z,2.53
2022-12-24T05:38:13.667Z,2.40
2022-12-24T05:41:00.131Z,2.70
2022-12-24T05:43:46.586Z,2.63
2022-12-24T05:46:33.095Z,2.60
2022-12-24T05:49:19.313Z,2.90
2022-12-24T05:52:05.904Z,3.40
2022-12-24T05:54:53.614Z,2.80
2022-12-24T05:57:41.433Z,3.13
2022-12-24T06:00:28.389Z,2.53
2022-12-24T06:03:14.656Z,3.07
2022-12-24T06:06:02.753Z,4.03
2022-12-24T06:08:50.350Z,2.60
2022-12-24T06:11:37.994Z,3.20
2022-12-24T06:14:24.415Z,2.53
2022-12-24T06:17:10.797Z,3.30
2022-12-24T06:19:57.053Z,2.83
2022-12-24T06:22:43.657Z,2.80
2022-12-24T06:25:30.138Z,3.00
2022-12-24T06:28:18.306Z,3.10
2022-12-24T06:31:06.441Z,3.10
2022-12-24T06:33:54.157Z,3.07
2022-12-24T06:36:40.496Z,2.90
2022-12-24T06:39:26.790Z,2.60
2022-12-24T06:42:13.266Z,3.10
2022-12-24T06:45:07.561Z,3.50
2022-12-24T06:47:54.784Z,5.00
2022-12-24T06:50:41.203Z,4.40
2022-12-24T06:53:27.417Z,3.03
2022-12-24T06:56:14.779Z,3.10
2022-12-24T06:59:05.332Z,3.00
2022-12-24T07:01:53.679Z,3.40
2022-12-24T07:04:40.408Z,3.30
2022-12-24T07:07:26.814Z,3.70
2022-12-24T07:10:14.420Z,2.80
2022-12-24T07:13:00.731Z,3.33
2022-12-24T07:15:47.408Z,3.50
2022-12-24T07:18:35.492Z,3.13
2022-12-24T07:21:21.866Z,3.50
2022-12-24T07:24:08.338Z,3.27
2022-12-24T07:26:54.997Z,4.27
2022-12-24T07:29:41.499Z,2.70
2022-12-24T07:32:27.956Z,3.40
2022-12-24T07:35:15.926Z,3.20
2022-12-24T07:38:02.912Z,3.63
2022-12-24T07:40:49.958Z,2.80
2022-12-24T07:43:36.952Z,2.83
2022-12-24T07:46:23.661Z,2.63
2022-12-24T07:49:10.695Z,4.07
2022-12-24T07:51:58.493Z,3.40
2022-12-24T07:54:45.322Z,2.90
2022-12-24T07:57:32.263Z,3.10
2022-12-24T08:00:19.587Z,8.33
2022-12-24T08:03:06.410Z,3.80
2022-12-24T08:05:53.708Z,3.93
2022-12-24T08:08:41.758Z,3.10
2022-12-24T08:11:28.388Z,3.03
2022-12-24T08:14:15.415Z,3.33
2022-12-24T08:17:02.081Z,3.40
2022-12-24T08:19:48.490Z,3.17
2022-12-24T08:22:34.789Z,3.17
2022-12-24T08:25:22.632Z,3.10
2022-12-24T08:28:09.282Z,3.40
2022-12-24T08:30:55.679Z,4.20
2022-12-24T08:33:42.190Z,3.10
2022-12-24T08:36:28.736Z,3.80
2022-12-24T08:39:15.009Z,2.83
2022-12-24T08:42:02.898Z,3.07
2022-12-24T08:44:49.399Z,3.30
2022-12-24T08:47:35.602Z,3.63
2022-12-24T08:50:21.942Z,5.60
2022-12-24T08:53:08.422Z,2.90
2022-12-24T08:56:01.757Z,3.43
2022-12-24T08:58:49.817Z,3.37
2022-12-24T09:01:36.193Z,3.83
2022-12-24T09:04:23.008Z,3.70
2022-12-24T09:07:10.312Z,3.20
2022-12-24T09:09:57.210Z,2.97
2022-12-24T09:12:43.799Z,3.33
2022-12-24T09:15:31.821Z,2.70
2022-12-24T09:18:18.378Z,3.20
2022-12-24T09:21:07.180Z,2.77
2022-12-24T09:23:53.600Z,3.60
2022-12-24T09:26:42.192Z,3.40
2022-12-24T09:29:28.765Z,3.37
2022-12-24T09:32:16.656Z,4.53
2022-12-24T09:35:03.395Z,3.63
2022-12-24T09:38:02.705Z,3.10
2022-12-24T09:40:50.178Z,4.10
2022-12-24T09:43:37.703Z,3.10
2022-12-24T09:46:28.815Z,3.70
2022-12-24T09:49:20.459Z,3.57
2022-12-24T09:52:09.543Z,3.83
2022-12-24T09:55:04.217Z,3.23
2022-12-24T09:57:54.356Z,5.40
2022-12-24T10:00:46.102Z,3.93
2022-12-24T10:03:37.282Z,4.27
2022-12-24T10:06:30.413Z,3.40
2022-12-24T10:09:27.682Z,3.40
2022-12-24T10:12:22.994Z,3.17
2022-12-24T10:15:16.432Z,3.63
2022-12-24T10:18:17.615Z,3.17
2022-12-24T10:21:11.801Z,3.83
2022-12-24T10:24:06.639Z,3.17
2022-12-24T10:26:58.481Z,3.20
2022-12-24T10:29:47.746Z,3.80
2022-12-24T10:32:36.335Z,3.93
2022-12-24T10:35:26.512Z,2.97
2022-12-24T10:38:13.052Z,4.17
2022-12-24T10:41:02.511Z,3.17
2022-12-24T10:43:50.448Z,3.20
2022-12-24T10:46:40.342Z,2.80
2022-12-24T10:49:37.301Z,2.60
2022-12-24T10:52:28.588Z,3.03
2022-12-24T10:55:24.573Z,3.50
2022-12-24T10:58:19.426Z,2.87
2022-12-24T11:01:06.426Z,2.70
2022-12-24T11:04:02.507Z,3.43
2022-12-24T11:06:57.511Z,3.17
2022-12-24T11:09:54.987Z,2.73
2022-12-24T11:13:05.782Z,2.40
2022-12-24T11:16:05.551Z,2.80
2022-12-24T11:18:54.098Z,2.90
2022-12-24T11:21:41.889Z,2.73
2022-12-24T11:24:30.875Z,2.30
2022-12-24T11:27:32.674Z,2.57
2022-12-24T11:30:24.209Z,2.83
2022-12-24T11:33:22.696Z,4.53
2022-12-24T11:36:14.685Z,2.70
2022-12-24T11:39:01.391Z,2.90
2022-12-24T11:41:48.280Z,2.40
2022-12-24T11:44:35.004Z,2.60
2022-12-24T11:47:34.081Z,2.07
2022-12-24T11:50:25.681Z,2.43
2022-12-24T11:53:16.686Z,3.00
2022-12-24T11:56:09.478Z,3.83
2022-12-24T11:58:59.909Z,3.00
2022-12-24T12:01:53.772Z,3.00
2022-12-24T12:04:44.048Z,3.10
2022-12-24T12:07:35.710Z,3.37
2022-12-24T12:10:25.343Z,4.23
2022-12-24T12:13:16.417Z,3.40
2022-12-24T12:16:13.935Z,3.23
2022-12-24T12:19:11.425Z,3.80
2022-12-24T12:22:04.535Z,4.33
2022-12-24T12:24:56.419Z,3.27
2022-12-24T12:27:47.048Z,3.30
2022-12-24T12:30:36.671Z,3.77
2022-12-24T12:33:30.402Z,4.07
2022-12-24T12:36:21.933Z,4.03
2022-12-24T12:39:10.788Z,3.43
2022-12-24T12:42:04.986Z,4.67
2022-12-24T12:45:04.648Z,4.40
2022-12-24T12:48:04.191Z,4.63
2022-12-24T12:50:58.140Z,3.60
2022-12-24T12:53:54.866Z,7.87
2022-12-24T12:56:46.779Z,3.80
2022-12-24T12:59:39.601Z,3.97
2022-12-24T13:02:46.525Z,4.47
2022-12-24T13:06:02.906Z,4.53
2022-12-24T13:09:21.634Z,3.87
2022-12-24T13:12:47.820Z,6.67
2022-12-24T13:15:58.434Z,2.97
2022-12-24T13:18:59.395Z,3.33
2022-12-24T13:21:48.756Z,3.23
2022-12-24T13:24:36.058Z,3.93
2022-12-24T13:27:26.078Z,3.30
2022-12-24T13:30:35.785Z,4.33
2022-12-24T13:33:51.280Z,3.40
2022-12-24T13:37:04.783Z,3.03
2022-12-24T13:40:15.756Z,3.00
2022-12-24T13:43:12.223Z,2.43
2022-12-24T13:45:59.048Z,2.90
2022-12-24T13:48:46.394Z,15.27
2022-12-24T13:51:34.811Z,11.40
2022-12-24T13:54:28.470Z,4.00
2022-12-24T13:57:42.336Z,3.70
2022-12-24T14:00:37.674Z,3.40
2022-12-24T14:03:31.243Z,3.93
2022-12-24T14:06:25.670Z,3.30
2022-12-24T14:09:16.580Z,3.47
2022-12-24T14:12:30.377Z,7.30
2022-12-24T14:15:47.153Z,3.30
2022-12-24T14:18:38.325Z,3.97
2022-12-24T14:21:29.365Z,5.00
2022-12-24T14:24:20.485Z,5.27
2022-12-24T14:27:25.560Z,4.70
2022-12-24T14:30:20.445Z,4.27
2022-12-24T14:33:06.834Z,4.67
2022-12-24T14:35:53.285Z,4.60
2022-12-24T14:38:42.430Z,4.57
2022-12-24T14:41:40.283Z,4.20
2022-12-24T14:44:36.027Z,4.30
2022-12-24T14:47:31.080Z,4.00
2022-12-24T14:50:30.709Z,4.00
2022-12-24T14:53:29.407Z,4.17
2022-12-24T14:56:17.757Z,3.80
2022-12-24T14:59:16.923Z,4.20
2022-12-24T15:02:39.732Z,4.50
2022-12-24T15:05:28.882Z,5.07
2022-12-24T15:08:19.229Z,3.53
2022-12-24T15:11:08.275Z,3.73
2022-12-24T15:13:56.996Z,5.67
2022-12-24T15:16:57.141Z,7.67
2022-12-24T15:19:45.681Z,4.97
2022-12-24T15:22:33.181Z,5.20
2022-12-24T15:25:22.314Z,4.53
2022-12-24T15:28:18.396Z,3.70
2022-12-24T15:31:13.091Z,3.60
2022-12-24T15:34:01.395Z,4.00
2022-12-24T15:36:48.015Z,23.83
2022-12-24T15:39:35.002Z,25.23
2022-12-24T15:42:22.727Z,10.40
2022-12-24T15:45:15.159Z,10.10
2022-12-24T15:48:08.406Z,5.10
2022-12-24T15:50:59.653Z,16.07
2022-12-24T15:53:48.302Z,8.93
2022-12-24T15:56:43.776Z,12.27
2022-12-24T15:59:35.700Z,6.37
2022-12-24T16:02:34.669Z,6.97
2022-12-24T16:05:33.160Z,18.87
2022-12-24T16:08:31.458Z,13.57
2022-12-24T16:11:20.211Z,10.00
2022-12-24T16:14:14.372Z,9.47
2022-12-24T16:17:00.859Z,11.63
2022-12-24T16:19:49.407Z,10.50
2022-12-24T16:22:36.147Z,10.80
2022-12-24T16:25:29.580Z,11.57
2022-12-24T16:28:22.215Z,11.83
2022-12-24T16:31:17.737Z,9.37
2022-12-24T16:34:05.193Z,6.80
2022-12-24T16:36:51.916Z,8.63
2022-12-24T16:39:38.481Z,7.80
2022-12-24T16:42:43.828Z,6.90
2022-12-24T16:45:31.191Z,6.67
2022-12-24T16:48:22.333Z,6.83
2022-12-24T16:51:08.557Z,7.13
2022-12-24T16:53:54.888Z,7.13
2022-12-24T16:56:41.361Z,30.13
2022-12-24T16:59:29.005Z,7.20
2022-12-24T17:02:18.443Z,6.77
2022-12-24T17:05:05.686Z,5.83
2022-12-24T17:07:52.415Z,6.80
2022-12-24T17:10:39.213Z,5.67
2022-12-24T17:13:26.126Z,6.03
2022-12-24T17:16:14.218Z,7.17
2022-12-24T17:19:00.881Z,7.70
2022-12-24T17:21:47.568Z,7.03
2022-12-24T17:24:33.973Z,5.03
2022-12-24T17:27:20.605Z,5.07
2022-12-24T17:30:08.374Z,4.97
2022-12-24T17:32:56.468Z,5.53
2022-12-24T17:35:42.904Z,4.77
2022-12-24T17:38:29.478Z,4.57
2022-12-24T17:41:17.526Z,4.33
2022-12-24T17:44:04.790Z,4.60
2022-12-24T17:46:51.147Z,5.40
2022-12-24T17:49:39.271Z,4.90
2022-12-24T17:52:25.679Z,4.13
2022-12-24T17:55:12.175Z,9.57
2022-12-24T17:57:59.419Z,10.77
2022-12-24T18:00:45.737Z,4.67
2022-12-24T18:03:32.421Z,5.63
2022-12-24T18:06:21.248Z,5.57
2022-12-24T18:09:07.943Z,5.17
2022-12-24T18:11:54.545Z,4.90
2022-12-24T18:14:41.201Z,4.60
2022-12-24T18:17:27.785Z,5.80
2022-12-24T18:20:14.607Z,6.53
2022-12-24T18:23:03.094Z,6.53
2022-12-24T18:25:49.463Z,6.90
2022-12-24T18:28:35.894Z,7.77
2022-12-24T18:31:23.619Z,7.60
2022-12-24T18:34:13.605Z,7.50
2022-12-24T18:37:00.347Z,8.93
2022-12-24T18:39:47.967Z,9.37
2022-12-24T18:42:34.377Z,8.23
2022-12-24T18:45:20.874Z,8.43
2022-12-24T18:48:07.424Z,8.67
2022-12-24T18:50:58.941Z,8.83
2022-12-24T18:53:45.617Z,9.00
2022-12-24T18:56:33.764Z,8.80
2022-12-24T18:59:21.454Z,8.87
2022-12-24T19:02:08.150Z,10.00
2022-12-24T19:04:54.839Z,10.50
2022-12-24T19:07:41.554Z,9.03
2022-12-24T19:10:28.145Z,23.90
2022-12-24T19:13:15.962Z,14.57
2022-12-24T19:16:05.148Z,10.47
2022-12-24T19:18:51.821Z,9.13
2022-12-24T19:21:38.172Z,8.33
2022-12-24T19:24:24.810Z,10.17
2022-12-24T19:27:11.508Z,8.70
2022-12-24T19:29:59.038Z,8.60
2022-12-24T19:32:45.382Z,7.77
2022-12-24T19:35:32.392Z,7.60
2022-12-24T19:38:18.563Z,7.97
2022-12-24T19:41:09.475Z,8.27
2022-12-24T19:43:57.553Z,9.57
2022-12-24T19:46:45.224Z,8.07
2022-12-24T19:49:31.494Z,9.37
2022-12-24T19:52:17.996Z,9.57
2022-12-24T19:55:04.665Z,9.17
2022-12-24T19:57:53.215Z,10.53
2022-12-24T20:00:39.517Z,9.50
2022-12-24T20:03:27.218Z,9.03
2022-12-24T20:06:14.340Z,8.10
2022-12-24T20:09:01.310Z,8.50
2022-12-24T20:11:50.650Z,7.40
2022-12-24T20:14:37.322Z,8.63
2022-12-24T20:17:23.585Z,7.73
2022-12-24T20:20:11.792Z,8.10
2022-12-24T20:22:59.392Z,8.53
2022-12-24T20:25:45.743Z,7.57
2022-12-24T20:28:34.136Z,7.97
2022-12-24T20:31:23.375Z,9.83
2022-12-24T20:34:11.989Z,8.50
2022-12-24T20:36:59.789Z,9.30
2022-12-24T20:39:46.155Z,10.00
2022-12-24T20:42:32.447Z,10.43
2022-12-24T20:45:19.067Z,10.93
2022-12-24T20:48:06.041Z,11.30
2022-12-24T20:50:53.117Z,11.17
2022-12-24T20:53:42.125Z,10.43
2022-12-24T20:56:29.088Z,10.80
2022-12-24T20:59:15.687Z,12.23
2022-12-24T21:02:02.292Z,12.37
2022-12-24T21:04:48.984Z,11.03
2022-12-24T21:07:35.436Z,8.97
2022-12-24T21:10:27.793Z,9.27
2022-12-24T21:13:16.535Z,8.57
2022-12-24T21:16:02.988Z,9.63
2022-12-24T21:18:50.085Z,8.03
2022-12-24T21:21:37.453Z,8.50
2022-12-24T21:24:25.355Z,10.23
2022-12-24T21:27:13.216Z,9.70
2022-12-24T21:29:59.830Z,10.13
2022-12-24T21:32:46.362Z,10.50
2022-12-24T21:35:32.564Z,10.70
2022-12-24T21:38:18.988Z,11.80
2022-12-24T21:41:07.391Z,13.17
2022-12-24T21:43:55.321Z,12.97
2022-12-24T21:46:41.625Z,9.90
2022-12-24T21:49:50.632Z,11.20
2022-12-24T21:52:37.423Z,9.97
2022-12-24T21:55:22.940Z,10.00
2022-12-24T21:58:09.370Z,9.67
2022-12-24T22:00:57.137Z,10.30
2022-12-24T22:03:43.619Z,11.40
2022-12-24T22:06:47.441Z,10.27
2022-12-24T22:09:51.488Z,9.73
2022-12-24T22:12:38.077Z,10.37
2022-12-24T22:15:24.527Z,9.83
2022-12-24T22:18:12.363Z,10.10
2022-12-24T22:21:02.289Z,9.40
2022-12-24T22:23:49.173Z,8.53
2022-12-24T22:26:35.774Z,9.30
2022-12-24T22:29:22.042Z,10.00
2022-12-24T22:32:08.434Z,12.02
2022-12-24T22:34:56.047Z,12.70
2022-12-24T22:37:42.311Z,10.30
2022-12-24T22:40:29.136Z,9.23
2022-12-24T22:43:15.511Z,8.30
2022-12-24T22:46:01.857Z,7.00
2022-12-24T22:48:48.670Z,9.67
2022-12-24T22:51:37.454Z,15.17
2022-12-24T22:54:23.921Z,8.07
2022-12-24T22:57:10.584Z,7.50
2022-12-24T22:59:56.958Z,7.17
2022-12-24T23:02:43.939Z,7.30
2022-12-24T23:05:30.348Z,9.03
2022-12-24T23:08:18.073Z,7.00
2022-12-24T23:11:09.081Z,8.73
2022-12-24T23:14:12.943Z,8.43
2022-12-24T23:16:59.636Z,7.57
2022-12-24T23:19:46.454Z,7.77
2022-12-24T23:22:33.042Z,7.47
2022-12-24T23:25:20.857Z,8.10
2022-12-24T23:28:07.865Z,6.43
2022-12-24T23:30:58.819Z,6.67
2022-12-24T23:33:45.500Z,7.07
2022-12-24T23:36:31.958Z,6.33
2022-12-24T23:39:18.306Z,5.93
2022-12-24T23:42:06.153Z,6.63
2022-12-24T23:44:52.420Z,5.70
2022-12-24T23:47:38.895Z,14.13
2022-12-24T23:50:25.714Z,7.83
2022-12-24T23:53:13.059Z,6.60
2022-12-24T23:55:59.646Z,5.20
2022-12-24T23:58:48.232Z,6.17
